»·PEaware :: N626MT KSAN-KMZJ

N626MT :: KSAN-KMZJ

FLIGHT INFORMATION

Flight Status: Arrived
Operator: Privately registered:
United States
More flights under this callsign
Pilot: Dave M. (4986)
Aircraft: SOCATA TBM-900
(TBM9)
More flights by this aircraft type
Origin: KSAN San Diego Intl-Lindbergh
United States
Destination: KMZJ Pinal
United States
More flights between these airports :: More routes between these airports
Route: BRDR7 IPL V66 FOUTZ
File this flight plan on PilotEdge
Remarks:
Altitude:
(Current/Filed)
31,000ft
Speed:
(Current/Filed)
270kts
Departed: 29-Dec-19 05:14 PM
Arrived: 29-Dec-19 06:22 PM
Distance/Time
Traveled:
297nm/1:07
Distance/Time
To Go:
Arrived

Flight Plot

Page will automatically refresh every two minutes.

Flight plan parsing failed; only flown route is shown


Map Options




Map Legend


Flown Route
Filed Route
Departure Airport
Arrival Airport
Navaid (VOR, NDB)
Fix

Horizontal Profiles

Position Reports

Time Latitude Longitude Heading Altitude Ground
Speed
29-Dec-19 17:00 32.732162 -117.176905 194 24ft 0kts
29-Dec-19 17:01 32.732162 -117.176905 194 24ft 0kts
29-Dec-19 17:02 32.732162 -117.176905 194 24ft 0kts
29-Dec-19 17:03 32.732162 -117.176905 194 24ft 0kts
29-Dec-19 17:04 32.732162 -117.176905 194 24ft 0kts
29-Dec-19 17:05 32.732162 -117.176905 194 24ft 0kts
29-Dec-19 17:06 32.732162 -117.176905 194 24ft 0kts
29-Dec-19 17:07 32.732162 -117.176905 194 24ft 0kts
29-Dec-19 17:08 32.732162 -117.176905 194 24ft 0kts
29-Dec-19 17:09 32.732162 -117.176905 194 24ft 0kts
29-Dec-19 17:10 32.732162 -117.176905 194 24ft 0kts
29-Dec-19 17:11 32.731213 -117.176050 107 24ft 10kts
29-Dec-19 17:12 32.731071 -117.175642 128 25ft 0kts
29-Dec-19 17:13 32.731244 -117.180073 285 15ft 88kts
29-Dec-19 17:14 32.742434 -117.222545 289 1211ft 159kts
29-Dec-19 17:15 32.758191 -117.273321 289 3095ft 167kts
29-Dec-19 17:16 32.752962 -117.317713 186 5091ft 170kts
29-Dec-19 17:17 32.716695 -117.279634 135 6812ft 184kts
29-Dec-19 17:18 32.680895 -117.235858 135 8507ft 186kts
29-Dec-19 17:19 32.644294 -117.191296 134 9992ft 192kts
29-Dec-19 17:20 32.619616 -117.137712 91 11331ft 194kts
29-Dec-19 17:21 32.618348 -117.072921 81 12530ft 200kts
29-Dec-19 17:22 32.624047 -117.005973 80 13651ft 211kts
29-Dec-19 17:23 32.630272 -116.935718 79 15373ft 217kts
29-Dec-19 17:24 32.636786 -116.862244 79 16818ft 228kts
29-Dec-19 17:25 32.643497 -116.785982 79 18140ft 236kts
29-Dec-19 17:26 32.650474 -116.706182 79 19696ft 247kts
29-Dec-19 17:27 32.657667 -116.623186 80 21183ft 256kts
29-Dec-19 17:28 32.665159 -116.536130 80 22627ft 268kts
29-Dec-19 17:29 32.672831 -116.446200 81 24146ft 277kts
29-Dec-19 17:30 32.680719 -116.352761 81 25607ft 289kts
29-Dec-19 17:31 32.688833 -116.255990 82 26964ft 298kts
29-Dec-19 17:32 32.697165 -116.156500 83 28170ft 307kts
29-Dec-19 17:33 32.706718 -116.054174 83 29260ft 315kts
29-Dec-19 17:34 32.717259 -115.949511 83 30288ft 323kts
29-Dec-19 17:35 32.724253 -115.842264 91 31046ft 338kts
29-Dec-19 17:36 32.731911 -115.725088 85 31045ft 368kts
29-Dec-19 17:37 32.741662 -115.601173 85 31039ft 382kts
29-Dec-19 17:38 32.749794 -115.474384 89 31037ft 388kts
29-Dec-19 17:39 32.752838 -115.345198 90 31033ft 391kts
29-Dec-19 17:40 32.755825 -115.215563 90 31023ft 390kts
29-Dec-19 17:41 32.758630 -115.087378 90 31213ft 384kts
29-Dec-19 17:42 32.761286 -114.960812 90 31213ft 382kts
29-Dec-19 17:43 32.763814 -114.834621 90 31212ft 380kts
29-Dec-19 17:44 32.766214 -114.708556 90 31215ft 380kts
29-Dec-19 17:45 32.768398 -114.583130 90 31212ft 380kts
29-Dec-19 17:46 32.770178 -114.457193 90 31210ft 380kts
29-Dec-19 17:47 32.771832 -114.332006 91 31201ft 380kts
29-Dec-19 17:48 32.773373 -114.204900 91 31198ft 379kts
29-Dec-19 17:49 32.774760 -114.079452 91 31201ft 378kts
29-Dec-19 17:50 32.778440 -113.954455 81 31201ft 379kts
29-Dec-19 17:51 32.796210 -113.830596 80 31204ft 379kts
29-Dec-19 17:52 32.813917 -113.706492 80 31205ft 380kts
29-Dec-19 17:53 32.831612 -113.581645 80 30769ft 394kts
29-Dec-19 17:54 32.850304 -113.448765 80 29379ft 413kts
29-Dec-19 17:55 32.869296 -113.312659 80 27930ft 417kts
29-Dec-19 17:56 32.887979 -113.177640 80 26409ft 406kts
29-Dec-19 17:57 32.905981 -113.046450 79 24886ft 396kts
29-Dec-19 17:58 32.923174 -112.919860 78 24190ft 369kts
29-Dec-19 17:59 32.939563 -112.798572 77 22656ft 375kts
29-Dec-19 18:00 32.952691 -112.675709 97 20683ft 379kts
29-Dec-19 18:01 32.903991 -112.565047 119 18803ft 373kts
29-Dec-19 18:02 32.853918 -112.460713 118 16876ft 346kts
29-Dec-19 18:03 32.806927 -112.363071 118 14947ft 331kts
29-Dec-19 18:04 32.761467 -112.268843 118 13013ft 322kts
29-Dec-19 18:05 32.716846 -112.176575 118 11998ft 306kts
29-Dec-19 18:06 32.674753 -112.089802 118 10787ft 299kts
29-Dec-19 18:07 32.633301 -112.004532 118 9171ft 294kts
29-Dec-19 18:08 32.591964 -111.919699 118 7471ft 297kts
29-Dec-19 18:09 32.551031 -111.835876 118 5750ft 273kts
29-Dec-19 18:10 32.516276 -111.764856 118 4252ft 231kts
29-Dec-19 18:11 32.484217 -111.698407 107 3474ft 220kts
29-Dec-19 18:12 32.487464 -111.629518 83 3478ft 204kts
29-Dec-19 18:13 32.492246 -111.565312 82 3558ft 174kts
29-Dec-19 18:14 32.496659 -111.505563 82 3494ft 184kts
29-Dec-19 18:15 32.501152 -111.444518 82 3492ft 184kts
29-Dec-19 18:16 32.506974 -111.385377 107 3407ft 174kts
29-Dec-19 18:17 32.506633 -111.336327 68 2908ft 146kts
29-Dec-19 18:19 32.519043 -111.302279 115 2800ft 101kts
29-Dec-19 18:20 32.497225 -111.285849 208 2479ft 96kts
29-Dec-19 18:21 32.499759 -111.312886 316 2083ft 88kts
29-Dec-19 18:22 32.511476 -111.327081 315 1880ft 26kts
29-Dec-19 18:23 32.513404 -111.327065 133 1879ft 11kts
29-Dec-19 18:24 32.511011 -111.324155 135 1883ft 15kts
29-Dec-19 18:25 32.507488 -111.319801 118 1887ft 17kts
29-Dec-19 18:26 32.507549 -111.318075 134 1890ft 0kts

Navigation Log

Ident Type
Flight plan parsing failed, navigation log unavailable